sensor_id;sensor_type;location;lat;lon;timestamp;temperature;humidity
14705;DHT22;7442;50.840;3.396;2022-10-15T00:02:07;22.50;58.40
14705;DHT22;7442;50.840;3.396;2022-10-15T00:04:37;22.50;58.20
14705;DHT22;7442;50.840;3.396;2022-10-15T00:07:07;22.50;58.20
14705;DHT22;7442;50.840;3.396;2022-10-15T00:09:37;22.50;58.10
14705;DHT22;7442;50.840;3.396;2022-10-15T00:12:07;22.50;58.20
14705;DHT22;7442;50.840;3.396;2022-10-15T00:14:37;22.50;58.10
14705;DHT22;7442;50.840;3.396;2022-10-15T00:17:07;22.50;58.10
14705;DHT22;7442;50.840;3.396;2022-10-15T00:19:37;22.50;58.10
14705;DHT22;7442;50.840;3.396;2022-10-15T00:22:07;22.50;58.10
14705;DHT22;7442;50.840;3.396;2022-10-15T00:24:37;22.50;58.00
14705;DHT22;7442;50.840;3.396;2022-10-15T00:27:08;22.60;58.10
14705;DHT22;7442;50.840;3.396;2022-10-15T00:29:38;22.60;58.00
14705;DHT22;7442;50.840;3.396;2022-10-15T00:32:08;22.60;58.00
14705;DHT22;7442;50.840;3.396;2022-10-15T00:34:38;22.60;57.90
14705;DHT22;7442;50.840;3.396;2022-10-15T00:37:09;22.60;58.00
14705;DHT22;7442;50.840;3.396;2022-10-15T00:39:39;22.60;57.90
14705;DHT22;7442;50.840;3.396;2022-10-15T00:42:10;22.60;57.90
14705;DHT22;7442;50.840;3.396;2022-10-15T00:44:48;22.50;57.90
14705;DHT22;7442;50.840;3.396;2022-10-15T00:47:41;22.60;58.10
14705;DHT22;7442;50.840;3.396;2022-10-15T00:50:20;22.50;57.90
14705;DHT22;7442;50.840;3.396;2022-10-15T00:52:59;22.50;58.40
14705;DHT22;7442;50.840;3.396;2022-10-15T00:55:33;22.50;58.00
14705;DHT22;7442;50.840;3.396;2022-10-15T00:58:09;22.50;58.00
14705;DHT22;7442;50.840;3.396;2022-10-15T01:00:40;22.40;58.10
14705;DHT22;7442;50.840;3.396;2022-10-15T01:03:10;22.40;58.20
14705;DHT22;7442;50.840;3.396;2022-10-15T01:05:42;22.40;58.30
14705;DHT22;7442;50.840;3.396;2022-10-15T01:08:12;22.40;58.30
14705;DHT22;7442;50.840;3.396;2022-10-15T01:16:11;22.50;58.10
14705;DHT22;7442;50.840;3.396;2022-10-15T01:18:45;22.50;58.00
14705;DHT22;7442;50.840;3.396;2022-10-15T01:21:26;22.40;58.10
14705;DHT22;7442;50.840;3.396;2022-10-15T01:24:14;22.50;58.20
14705;DHT22;7442;50.840;3.396;2022-10-15T01:26:53;22.50;58.20
14705;DHT22;7442;50.840;3.396;2022-10-15T01:32:22;22.50;57.80
14705;DHT22;7442;50.840;3.396;2022-10-15T01:34:55;22.50;58.00
14705;DHT22;7442;50.840;3.396;2022-10-15T01:38:16;22.50;58.00
14705;DHT22;7442;50.840;3.396;2022-10-15T01:40:22;22.50;58.00
14705;DHT22;7442;50.840;3.396;2022-10-15T01:42:56;22.50;57.90
14705;DHT22;7442;50.840;3.396;2022-10-15T01:45:32;22.40;57.90
14705;DHT22;7442;50.840;3.396;2022-10-15T01:48:08;22.40;57.90
14705;DHT22;7442;50.840;3.396;2022-10-15T01:50:49;22.40;57.90
14705;DHT22;7442;50.840;3.396;2022-10-15T01:53:18;22.40;58.10
14705;DHT22;7442;50.840;3.396;2022-10-15T01:55:49;22.40;58.00
14705;DHT22;7442;50.840;3.396;2022-10-15T01:58:19;22.40;57.90
14705;DHT22;7442;50.840;3.396;2022-10-15T02:00:52;22.40;57.90
14705;DHT22;7442;50.840;3.396;2022-10-15T02:03:23;22.40;58.00
14705;DHT22;7442;50.840;3.396;2022-10-15T02:05:59;22.40;58.00
14705;DHT22;7442;50.840;3.396;2022-10-15T02:08:57;22.30;58.00
14705;DHT22;7442;50.840;3.396;2022-10-15T02:11:26;22.40;58.00
14705;DHT22;7442;50.840;3.396;2022-10-15T02:14:09;22.40;57.90
14705;DHT22;7442;50.840;3.396;2022-10-15T02:16:55;22.40;57.90
14705;DHT22;7442;50.840;3.396;2022-10-15T02:19:51;22.40;57.90
14705;DHT22;7442;50.840;3.396;2022-10-15T02:22:27;22.40;58.50
14705;DHT22;7442;50.840;3.396;2022-10-15T02:25:06;22.40;57.80
14705;DHT22;7442;50.840;3.396;2022-10-15T02:27:37;22.50;57.70
14705;DHT22;7442;50.840;3.396;2022-10-15T02:30:09;22.50;57.70
14705;DHT22;7442;50.840;3.396;2022-10-15T02:32:40;22.50;57.60
14705;DHT22;7442;50.840;3.396;2022-10-15T02:35:11;22.50;57.60
14705;DHT22;7442;50.840;3.396;2022-10-15T02:37:43;22.50;57.60
14705;DHT22;7442;50.840;3.396;2022-10-15T02:40:15;22.50;57.60
14705;DHT22;7442;50.840;3.396;2022-10-15T02:42:45;22.40;57.60
14705;DHT22;7442;50.840;3.396;2022-10-15T02:45:15;22.40;57.60
14705;DHT22;7442;50.840;3.396;2022-10-15T02:47:45;22.40;57.60
14705;DHT22;7442;50.840;3.396;2022-10-15T02:50:15;22.40;57.70
14705;DHT22;7442;50.840;3.396;2022-10-15T02:52:45;22.40;57.70
14705;DHT22;7442;50.840;3.396;2022-10-15T02:55:15;22.40;57.80
14705;DHT22;7442;50.840;3.396;2022-10-15T02:57:45;22.30;57.80
14705;DHT22;7442;50.840;3.396;2022-10-15T03:00:16;22.30;57.60
14705;DHT22;7442;50.840;3.396;2022-10-15T03:02:46;22.40;57.70
14705;DHT22;7442;50.840;3.396;2022-10-15T03:05:16;22.30;57.70
14705;DHT22;7442;50.840;3.396;2022-10-15T03:07:46;22.40;57.70
14705;DHT22;7442;50.840;3.396;2022-10-15T03:10:16;22.30;57.80
14705;DHT22;7442;50.840;3.396;2022-10-15T03:12:46;22.30;57.80
14705;DHT22;7442;50.840;3.396;2022-10-15T03:15:17;22.30;57.80
14705;DHT22;7442;50.840;3.396;2022-10-15T03:17:47;22.30;57.80
14705;DHT22;7442;50.840;3.396;2022-10-15T03:20:17;22.30;57.80
14705;DHT22;7442;50.840;3.396;2022-10-15T03:22:47;22.30;57.70
14705;DHT22;7442;50.840;3.396;2022-10-15T03:25:17;22.30;57.70
14705;DHT22;7442;50.840;3.396;2022-10-15T03:27:47;22.40;57.70
14705;DHT22;7442;50.840;3.396;2022-10-15T03:30:18;22.30;57.50
14705;DHT22;7442;50.840;3.396;2022-10-15T03:32:48;22.40;57.60
14705;DHT22;7442;50.840;3.396;2022-10-15T03:35:18;22.30;57.60
14705;DHT22;7442;50.840;3.396;2022-10-15T03:37:48;22.40;57.70
14705;DHT22;7442;50.840;3.396;2022-10-15T03:40:18;22.30;57.70
14705;DHT22;7442;50.840;3.396;2022-10-15T03:42:51;22.40;57.60
14705;DHT22;7442;50.840;3.396;2022-10-15T03:45:22;22.40;57.40
14705;DHT22;7442;50.840;3.396;2022-10-15T03:47:52;22.40;57.40
14705;DHT22;7442;50.840;3.396;2022-10-15T03:50:22;22.40;57.40
14705;DHT22;7442;50.840;3.396;2022-10-15T03:52:52;22.40;57.50
14705;DHT22;7442;50.840;3.396;2022-10-15T03:55:24;22.40;57.50
14705;DHT22;7442;50.840;3.396;2022-10-15T03:57:54;22.30;57.50
14705;DHT22;7442;50.840;3.396;2022-10-15T04:00:26;22.40;57.50
14705;DHT22;7442;50.840;3.396;2022-10-15T04:02:57;22.30;57.50
14705;DHT22;7442;50.840;3.396;2022-10-15T04:05:27;22.30;57.50
14705;DHT22;7442;50.840;3.396;2022-10-15T04:07:57;22.30;57.60
14705;DHT22;7442;50.840;3.396;2022-10-15T04:10:27;22.30;57.60
14705;DHT22;7442;50.840;3.396;2022-10-15T04:12:57;22.30;57.60
14705;DHT22;7442;50.840;3.396;2022-10-15T04:15:27;22.30;57.60
14705;DHT22;7442;50.840;3.396;2022-10-15T04:17:57;22.30;57.60
14705;DHT22;7442;50.840;3.396;2022-10-15T04:20:27;22.20;57.60
14705;DHT22;7442;50.840;3.396;2022-10-15T04:22:58;22.20;57.60
14705;DHT22;7442;50.840;3.396;2022-10-15T04:25:28;22.20;57.60
14705;DHT22;7442;50.840;3.396;2022-10-15T04:27:58;22.20;57.60
14705;DHT22;7442;50.840;3.396;2022-10-15T04:30:28;22.20;57.60
14705;DHT22;7442;50.840;3.396;2022-10-15T04:32:58;22.20;57.50
14705;DHT22;7442;50.840;3.396;2022-10-15T04:35:28;22.20;57.50
14705;DHT22;7442;50.840;3.396;2022-10-15T04:37:58;22.20;57.50
14705;DHT22;7442;50.840;3.396;2022-10-15T04:40:28;22.20;57.60
14705;DHT22;7442;50.840;3.396;2022-10-15T04:42:59;22.20;57.70
14705;DHT22;7442;50.840;3.396;2022-10-15T04:45:29;22.20;57.70
14705;DHT22;7442;50.840;3.396;2022-10-15T04:47:59;22.20;57.70
14705;DHT22;7442;50.840;3.396;2022-10-15T04:50:29;22.10;57.70
14705;DHT22;7442;50.840;3.396;2022-10-15T04:52:59;22.10;57.80
14705;DHT22;7442;50.840;3.396;2022-10-15T04:55:29;22.10;57.90
14705;DHT22;7442;50.840;3.396;2022-10-15T04:57:59;22.10;57.80
14705;DHT22;7442;50.840;3.396;2022-10-15T05:00:29;22.10;57.80
14705;DHT22;7442;50.840;3.396;2022-10-15T05:02:59;22.10;57.80
14705;DHT22;7442;50.840;3.396;2022-10-15T05:05:29;22.10;57.80
14705;DHT22;7442;50.840;3.396;2022-10-15T05:08:00;22.10;57.80
14705;DHT22;7442;50.840;3.396;2022-10-15T05:10:31;22.10;57.80
14705;DHT22;7442;50.840;3.396;2022-10-15T05:13:01;22.10;57.80
14705;DHT22;7442;50.840;3.396;2022-10-15T05:15:31;22.10;57.70
14705;DHT22;7442;50.840;3.396;2022-10-15T05:18:02;22.10;57.80
14705;DHT22;7442;50.840;3.396;2022-10-15T05:20:32;22.20;57.70
14705;DHT22;7442;50.840;3.396;2022-10-15T05:23:02;22.10;57.60
14705;DHT22;7442;50.840;3.396;2022-10-15T05:25:33;22.10;57.80
14705;DHT22;7442;50.840;3.396;2022-10-15T05:28:03;22.10;57.70
14705;DHT22;7442;50.840;3.396;2022-10-15T05:30:34;22.10;57.70
14705;DHT22;7442;50.840;3.396;2022-10-15T05:33:04;22.10;57.80
14705;DHT22;7442;50.840;3.396;2022-10-15T05:35:34;22.10;57.70
14705;DHT22;7442;50.840;3.396;2022-10-15T05:38:04;22.10;57.70
14705;DHT22;7442;50.840;3.396;2022-10-15T05:40:34;22.10;57.80
14705;DHT22;7442;50.840;3.396;2022-10-15T05:43:04;22.10;57.80
14705;DHT22;7442;50.840;3.396;2022-10-15T05:45:34;22.10;57.70
14705;DHT22;7442;50.840;3.396;2022-10-15T05:48:04;22.10;57.70
14705;DHT22;7442;50.840;3.396;2022-10-15T05:50:35;22.10;57.80
14705;DHT22;7442;50.840;3.396;2022-10-15T05:53:05;22.00;57.80
14705;DHT22;7442;50.840;3.396;2022-10-15T05:55:35;22.00;57.80
14705;DHT22;7442;50.840;3.396;2022-10-15T05:58:05;22.10;57.70
14705;DHT22;7442;50.840;3.396;2022-10-15T06:00:35;22.10;57.70
14705;DHT22;7442;50.840;3.396;2022-10-15T06:03:11;22.00;57.70
14705;DHT22;7442;50.840;3.396;2022-10-15T06:05:42;22.00;57.70
14705;DHT22;7442;50.840;3.396;2022-10-15T06:08:11;22.00;57.70
14705;DHT22;7442;50.840;3.396;2022-10-15T06:10:43;22.00;57.70
14705;DHT22;7442;50.840;3.396;2022-10-15T06:13:14;22.00;57.70
14705;DHT22;7442;50.840;3.396;2022-10-15T06:15:45;22.00;57.70
14705;DHT22;7442;50.840;3.396;2022-10-15T06:18:15;22.00;57.70
14705;DHT22;7442;50.840;3.396;2022-10-15T06:20:50;22.00;57.70
14705;DHT22;7442;50.840;3.396;2022-10-15T06:23:20;22.00;57.70
14705;DHT22;7442;50.840;3.396;2022-10-15T06:25:52;22.00;57.80
14705;DHT22;7442;50.840;3.396;2022-10-15T06:28:22;22.00;57.80
14705;DHT22;7442;50.840;3.396;2022-10-15T06:30:52;22.00;57.70
14705;DHT22;7442;50.840;3.396;2022-10-15T06:33:22;22.00;57.70
14705;DHT22;7442;50.840;3.396;2022-10-15T06:35:52;22.00;57.70
14705;DHT22;7442;50.840;3.396;2022-10-15T06:38:22;22.00;57.80
14705;DHT22;7442;50.840;3.396;2022-10-15T06:40:53;22.00;57.70
14705;DHT22;7442;50.840;3.396;2022-10-15T06:43:23;22.00;57.70
14705;DHT22;7442;50.840;3.396;2022-10-15T06:45:53;22.00;57.70
14705;DHT22;7442;50.840;3.396;2022-10-15T06:48:23;22.00;57.80
14705;DHT22;7442;50.840;3.396;2022-10-15T06:50:54;22.00;57.80
14705;DHT22;7442;50.840;3.396;2022-10-15T06:53:24;22.00;57.90
14705;DHT22;7442;50.840;3.396;2022-10-15T06:55:58;22.00;57.80
14705;DHT22;7442;50.840;3.396;2022-10-15T06:58:29;22.00;57.80
14705;DHT22;7442;50.840;3.396;2022-10-15T07:01:04;22.00;57.80
14705;DHT22;7442;50.840;3.396;2022-10-15T07:03:34;22.00;57.80
14705;DHT22;7442;50.840;3.396;2022-10-15T07:06:07;22.00;57.70
14705;DHT22;7442;50.840;3.396;2022-10-15T07:08:38;22.00;57.70
14705;DHT22;7442;50.840;3.396;2022-10-15T07:11:08;22.00;57.70
14705;DHT22;7442;50.840;3.396;2022-10-15T07:13:38;22.00;57.70
14705;DHT22;7442;50.840;3.396;2022-10-15T07:16:10;22.00;57.70
14705;DHT22;7442;50.840;3.396;2022-10-15T07:18:41;22.00;57.70
14705;DHT22;7442;50.840;3.396;2022-10-15T07:21:11;22.00;57.80
14705;DHT22;7442;50.840;3.396;2022-10-15T07:23:41;22.00;57.80
14705;DHT22;7442;50.840;3.396;2022-10-15T07:26:11;22.00;57.80
14705;DHT22;7442;50.840;3.396;2022-10-15T07:28:41;22.00;57.80
14705;DHT22;7442;50.840;3.396;2022-10-15T07:31:11;22.00;57.70
14705;DHT22;7442;50.840;3.396;2022-10-15T07:33:42;22.00;57.70
14705;DHT22;7442;50.840;3.396;2022-10-15T07:36:12;22.00;57.70
14705;DHT22;7442;50.840;3.396;2022-10-15T07:38:44;22.00;57.70
14705;DHT22;7442;50.840;3.396;2022-10-15T07:41:14;22.00;57.70
14705;DHT22;7442;50.840;3.396;2022-10-15T07:43:44;22.00;57.80
14705;DHT22;7442;50.840;3.396;2022-10-15T07:46:14;22.00;57.80
14705;DHT22;7442;50.840;3.396;2022-10-15T07:48:44;22.00;57.80
14705;DHT22;7442;50.840;3.396;2022-10-15T07:51:14;22.00;57.90
14705;DHT22;7442;50.840;3.396;2022-10-15T07:53:44;22.00;57.80
14705;DHT22;7442;50.840;3.396;2022-10-15T07:56:15;22.00;57.90
14705;DHT22;7442;50.840;3.396;2022-10-15T07:58:45;22.00;57.80
14705;DHT22;7442;50.840;3.396;2022-10-15T08:01:19;22.00;57.70
14705;DHT22;7442;50.840;3.396;2022-10-15T08:03:49;22.00;57.70
14705;DHT22;7442;50.840;3.396;2022-10-15T08:06:19;22.00;57.60
14705;DHT22;7442;50.840;3.396;2022-10-15T08:08:50;22.00;57.60
14705;DHT22;7442;50.840;3.396;2022-10-15T08:11:20;22.00;57.70
14705;DHT22;7442;50.840;3.396;2022-10-15T08:13:52;22.00;57.70
14705;DHT22;7442;50.840;3.396;2022-10-15T08:16:22;22.00;57.70
14705;DHT22;7442;50.840;3.396;2022-10-15T08:18:52;22.00;57.70
14705;DHT22;7442;50.840;3.396;2022-10-15T08:21:22;22.00;57.70
14705;DHT22;7442;50.840;3.396;2022-10-15T08:23:52;22.00;57.80
14705;DHT22;7442;50.840;3.396;2022-10-15T08:26:22;22.00;57.80
14705;DHT22;7442;50.840;3.396;2022-10-15T08:28:54;22.00;57.80
14705;DHT22;7442;50.840;3.396;2022-10-15T08:31:25;22.00;57.80
14705;DHT22;7442;50.840;3.396;2022-10-15T08:33:58;22.00;57.70
14705;DHT22;7442;50.840;3.396;2022-10-15T08:36:27;22.00;57.70
14705;DHT22;7442;50.840;3.396;2022-10-15T08:38:57;22.00;57.70
14705;DHT22;7442;50.840;3.396;2022-10-15T08:41:45;22.00;57.70
14705;DHT22;7442;50.840;3.396;2022-10-15T08:47:05;22.10;57.70
14705;DHT22;7442;50.840;3.396;2022-10-15T08:49:46;22.10;57.60
14705;DHT22;7442;50.840;3.396;2022-10-15T08:52:43;22.20;57.60
14705;DHT22;7442;50.840;3.396;2022-10-15T08:55:16;22.10;57.50
14705;DHT22;7442;50.840;3.396;2022-10-15T08:58:47;22.20;57.60
14705;DHT22;7442;50.840;3.396;2022-10-15T09:00:45;22.10;57.50
14705;DHT22;7442;50.840;3.396;2022-10-15T09:03:32;22.20;57.60
14705;DHT22;7442;50.840;3.396;2022-10-15T09:06:23;22.20;57.60
14705;DHT22;7442;50.840;3.396;2022-10-15T09:08:58;22.20;57.60
14705;DHT22;7442;50.840;3.396;2022-10-15T09:11:43;22.20;57.50
14705;DHT22;7442;50.840;3.396;2022-10-15T09:14:15;22.20;57.50
14705;DHT22;7442;50.840;3.396;2022-10-15T09:16:48;22.20;57.50
14705;DHT22;7442;50.840;3.396;2022-10-15T09:19:21;22.20;57.40
14705;DHT22;7442;50.840;3.396;2022-10-15T09:21:51;22.20;57.40
14705;DHT22;7442;50.840;3.396;2022-10-15T09:24:24;22.20;57.40
14705;DHT22;7442;50.840;3.396;2022-10-15T09:27:07;22.30;57.40
14705;DHT22;7442;50.840;3.396;2022-10-15T09:29:49;22.30;57.30
14705;DHT22;7442;50.840;3.396;2022-10-15T09:32:28;22.40;57.30
14705;DHT22;7442;50.840;3.396;2022-10-15T09:34:58;22.30;57.40
14705;DHT22;7442;50.840;3.396;2022-10-15T09:38:01;22.30;57.30
14705;DHT22;7442;50.840;3.396;2022-10-15T09:43:29;22.40;57.20
14705;DHT22;7442;50.840;3.396;2022-10-15T09:45:57;22.40;57.10
14705;DHT22;7442;50.840;3.396;2022-10-15T09:48:31;22.40;57.10
14705;DHT22;7442;50.840;3.396;2022-10-15T09:51:13;22.40;57.10
14705;DHT22;7442;50.840;3.396;2022-10-15T09:53:55;22.50;57.10
14705;DHT22;7442;50.840;3.396;2022-10-15T09:56:30;22.50;57.10
14705;DHT22;7442;50.840;3.396;2022-10-15T09:58:57;22.50;56.90
14705;DHT22;7442;50.840;3.396;2022-10-15T10:01:30;22.60;56.90
14705;DHT22;7442;50.840;3.396;2022-10-15T10:04:18;22.60;56.80
14705;DHT22;7442;50.840;3.396;2022-10-15T10:06:54;22.70;56.70
14705;DHT22;7442;50.840;3.396;2022-10-15T10:09:34;22.70;56.70
14705;DHT22;7442;50.840;3.396;2022-10-15T10:12:06;22.70;56.70
14705;DHT22;7442;50.840;3.396;2022-10-15T10:14:55;22.70;56.60
14705;DHT22;7442;50.840;3.396;2022-10-15T10:17:27;22.70;56.60
14705;DHT22;7442;50.840;3.396;2022-10-15T10:20:12;22.70;56.70
14705;DHT22;7442;50.840;3.396;2022-10-15T10:22:53;22.70;56.70
14705;DHT22;7442;50.840;3.396;2022-10-15T10:25:29;22.70;56.70
14705;DHT22;7442;50.840;3.396;2022-10-15T10:33:28;22.70;56.90
14705;DHT22;7442;50.840;3.396;2022-10-15T10:35:58;22.70;56.90
14705;DHT22;7442;50.840;3.396;2022-10-15T10:38:37;22.80;56.80
14705;DHT22;7442;50.840;3.396;2022-10-15T10:41:10;22.80;56.70
14705;DHT22;7442;50.840;3.396;2022-10-15T10:43:51;22.90;56.60
14705;DHT22;7442;50.840;3.396;2022-10-15T10:46:16;23.00;56.40
14705;DHT22;7442;50.840;3.396;2022-10-15T10:48:49;23.10;56.20
14705;DHT22;7442;50.840;3.396;2022-10-15T10:51:25;23.00;56.20
14705;DHT22;7442;50.840;3.396;2022-10-15T10:53:58;23.10;56.00
14705;DHT22;7442;50.840;3.396;2022-10-15T10:56:35;23.20;56.00
14705;DHT22;7442;50.840;3.396;2022-10-15T10:59:27;23.10;56.20
14705;DHT22;7442;50.840;3.396;2022-10-15T11:01:54;23.10;56.90
14705;DHT22;7442;50.840;3.396;2022-10-15T11:04:29;23.00;56.50
14705;DHT22;7442;50.840;3.396;2022-10-15T11:10:06;23.00;56.50
14705;DHT22;7442;50.840;3.396;2022-10-15T11:13:01;23.20;56.30
14705;DHT22;7442;50.840;3.396;2022-10-15T11:16:02;23.20;56.30
14705;DHT22;7442;50.840;3.396;2022-10-15T11:18:48;23.20;56.10
14705;DHT22;7442;50.840;3.396;2022-10-15T11:24:18;23.30;56.10
14705;DHT22;7442;50.840;3.396;2022-10-15T11:29:38;23.30;56.10
14705;DHT22;7442;50.840;3.396;2022-10-15T11:43:50;23.30;56.20
14705;DHT22;7442;50.840;3.396;2022-10-15T11:49:30;23.30;56.30
14705;DHT22;7442;50.840;3.396;2022-10-15T11:55:00;23.30;56.20
14705;DHT22;7442;50.840;3.396;2022-10-15T11:57:27;23.40;56.00
14705;DHT22;7442;50.840;3.396;2022-10-15T12:00:05;23.40;55.90
14705;DHT22;7442;50.840;3.396;2022-10-15T12:02:38;23.50;55.90
14705;DHT22;7442;50.840;3.396;2022-10-15T12:05:23;23.50;55.90
14705;DHT22;7442;50.840;3.396;2022-10-15T12:07:49;23.50;55.90
14705;DHT22;7442;50.840;3.396;2022-10-15T12:10:46;23.50;55.80
14705;DHT22;7442;50.840;3.396;2022-10-15T12:16:28;23.60;55.80
14705;DHT22;7442;50.840;3.396;2022-10-15T12:19:27;23.50;55.80
14705;DHT22;7442;50.840;3.396;2022-10-15T12:27:21;23.60;55.90
14705;DHT22;7442;50.840;3.396;2022-10-15T12:32:40;23.60;55.70
14705;DHT22;7442;50.840;3.396;2022-10-15T12:37:48;23.60;56.10
14705;DHT22;7442;50.840;3.396;2022-10-15T12:40:27;23.60;56.10
14705;DHT22;7442;50.840;3.396;2022-10-15T12:43:15;23.60;56.10
14705;DHT22;7442;50.840;3.396;2022-10-15T12:45:55;23.60;56.00
14705;DHT22;7442;50.840;3.396;2022-10-15T12:48:35;23.60;55.90
14705;DHT22;7442;50.840;3.396;2022-10-15T12:53:53;23.60;56.00
14705;DHT22;7442;50.840;3.396;2022-10-15T12:56:38;23.70;55.90
14705;DHT22;7442;50.840;3.396;2022-10-15T13:05:04;23.70;56.10
14705;DHT22;7442;50.840;3.396;2022-10-15T13:07:36;23.70;56.00
14705;DHT22;7442;50.840;3.396;2022-10-15T13:10:19;23.70;56.00
14705;DHT22;7442;50.840;3.396;2022-10-15T13:13:02;23.60;56.10
14705;DHT22;7442;50.840;3.396;2022-10-15T13:15:28;23.60;56.10
14705;DHT22;7442;50.840;3.396;2022-10-15T13:18:05;23.70;56.10
14705;DHT22;7442;50.840;3.396;2022-10-15T13:20:36;23.60;56.20
14705;DHT22;7442;50.840;3.396;2022-10-15T13:23:25;23.60;56.30
14705;DHT22;7442;50.840;3.396;2022-10-15T13:28:58;23.70;56.10
14705;DHT22;7442;50.840;3.396;2022-10-15T13:31:30;23.70;56.00
14705;DHT22;7442;50.840;3.396;2022-10-15T13:36:57;23.60;56.10
14705;DHT22;7442;50.840;3.396;2022-10-15T13:39:36;23.60;56.10
14705;DHT22;7442;50.840;3.396;2022-10-15T13:42:20;23.70;56.10
14705;DHT22;7442;50.840;3.396;2022-10-15T13:47:38;23.70;56.00
14705;DHT22;7442;50.840;3.396;2022-10-15T13:55:45;23.70;56.00
14705;DHT22;7442;50.840;3.396;2022-10-15T13:58:21;23.70;56.00
14705;DHT22;7442;50.840;3.396;2022-10-15T14:01:08;23.70;56.00
14705;DHT22;7442;50.840;3.396;2022-10-15T14:03:57;23.70;55.90
14705;DHT22;7442;50.840;3.396;2022-10-15T14:06:25;23.80;56.00
14705;DHT22;7442;50.840;3.396;2022-10-15T14:08:58;23.70;56.00
14705;DHT22;7442;50.840;3.396;2022-10-15T14:11:29;23.70;56.10
14705;DHT22;7442;50.840;3.396;2022-10-15T14:14:00;23.70;56.20
14705;DHT22;7442;50.840;3.396;2022-10-15T14:16:39;23.60;56.30
14705;DHT22;7442;50.840;3.396;2022-10-15T14:19:17;23.70;56.30
14705;DHT22;7442;50.840;3.396;2022-10-15T14:21:49;23.60;56.30
14705;DHT22;7442;50.840;3.396;2022-10-15T14:24:38;23.70;56.40
14705;DHT22;7442;50.840;3.396;2022-10-15T14:27:19;23.70;56.10
14705;DHT22;7442;50.840;3.396;2022-10-15T14:29:55;23.80;56.00
14705;DHT22;7442;50.840;3.396;2022-10-15T14:32:30;23.80;55.90
14705;DHT22;7442;50.840;3.396;2022-10-15T14:35:02;23.80;56.10
14705;DHT22;7442;50.840;3.396;2022-10-15T14:37:39;23.70;56.10
14705;DHT22;7442;50.840;3.396;2022-10-15T14:40:16;23.70;56.10
14705;DHT22;7442;50.840;3.396;2022-10-15T14:42:59;23.80;56.10
14705;DHT22;7442;50.840;3.396;2022-10-15T14:45:26;23.80;55.90
14705;DHT22;7442;50.840;3.396;2022-10-15T14:47:58;23.80;55.80
14705;DHT22;7442;50.840;3.396;2022-10-15T14:50:32;23.80;56.10
14705;DHT22;7442;50.840;3.396;2022-10-15T14:53:07;23.70;56.10
14705;DHT22;7442;50.840;3.396;2022-10-15T14:55:43;23.80;56.00
14705;DHT22;7442;50.840;3.396;2022-10-15T14:58:16;23.90;55.90
14705;DHT22;7442;50.840;3.396;2022-10-15T15:00:53;23.90;55.90
14705;DHT22;7442;50.840;3.396;2022-10-15T15:03:26;23.90;55.90
14705;DHT22;7442;50.840;3.396;2022-10-15T15:05:54;23.90;55.80
14705;DHT22;7442;50.840;3.396;2022-10-15T15:08:25;23.90;55.90
14705;DHT22;7442;50.840;3.396;2022-10-15T15:10:58;23.80;56.10
14705;DHT22;7442;50.840;3.396;2022-10-15T15:13:31;23.80;56.20
14705;DHT22;7442;50.840;3.396;2022-10-15T15:16:02;23.80;56.20
14705;DHT22;7442;50.840;3.396;2022-10-15T15:18:32;23.70;56.20
14705;DHT22;7442;50.840;3.396;2022-10-15T15:21:05;23.70;56.30
14705;DHT22;7442;50.840;3.396;2022-10-15T15:23:35;23.80;56.30
14705;DHT22;7442;50.840;3.396;2022-10-15T15:26:05;23.80;56.10
14705;DHT22;7442;50.840;3.396;2022-10-15T15:28:35;23.80;56.10
14705;DHT22;7442;50.840;3.396;2022-10-15T15:31:09;23.80;56.00
14705;DHT22;7442;50.840;3.396;2022-10-15T15:33:38;23.80;56.20
14705;DHT22;7442;50.840;3.396;2022-10-15T15:36:12;23.70;56.80
14705;DHT22;7442;50.840;3.396;2022-10-15T15:38:43;23.70;56.40
14705;DHT22;7442;50.840;3.396;2022-10-15T15:41:16;23.70;56.20
14705;DHT22;7442;50.840;3.396;2022-10-15T15:43:47;23.80;56.30
14705;DHT22;7442;50.840;3.396;2022-10-15T15:46:17;23.80;56.20
14705;DHT22;7442;50.840;3.396;2022-10-15T15:48:47;23.80;56.20
14705;DHT22;7442;50.840;3.396;2022-10-15T15:51:28;23.80;56.20
14705;DHT22;7442;50.840;3.396;2022-10-15T15:54:00;23.80;56.20
14705;DHT22;7442;50.840;3.396;2022-10-15T15:56:33;23.70;56.20
14705;DHT22;7442;50.840;3.396;2022-10-15T15:59:04;23.70;56.40
14705;DHT22;7442;50.840;3.396;2022-10-15T16:01:34;23.60;56.50
14705;DHT22;7442;50.840;3.396;2022-10-15T16:04:04;23.60;56.60
14705;DHT22;7442;50.840;3.396;2022-10-15T16:06:40;23.60;56.60
14705;DHT22;7442;50.840;3.396;2022-10-15T16:09:10;23.60;56.60
14705;DHT22;7442;50.840;3.396;2022-10-15T16:11:40;23.60;56.60
14705;DHT22;7442;50.840;3.396;2022-10-15T16:14:11;23.60;56.70
14705;DHT22;7442;50.840;3.396;2022-10-15T16:16:47;23.60;56.70
14705;DHT22;7442;50.840;3.396;2022-10-15T16:19:17;23.50;56.80
14705;DHT22;7442;50.840;3.396;2022-10-15T16:21:47;23.50;56.90
14705;DHT22;7442;50.840;3.396;2022-10-15T16:24:17;23.50;57.00
14705;DHT22;7442;50.840;3.396;2022-10-15T16:26:47;23.50;57.00
14705;DHT22;7442;50.840;3.396;2022-10-15T16:29:17;23.50;56.90
14705;DHT22;7442;50.840;3.396;2022-10-15T16:31:47;23.50;56.80
14705;DHT22;7442;50.840;3.396;2022-10-15T16:34:17;23.50;56.80
14705;DHT22;7442;50.840;3.396;2022-10-15T16:36:49;23.50;56.90
14705;DHT22;7442;50.840;3.396;2022-10-15T16:39:19;23.40;57.10
14705;DHT22;7442;50.840;3.396;2022-10-15T16:41:49;23.30;57.00
14705;DHT22;7442;50.840;3.396;2022-10-15T16:44:19;23.30;57.10
14705;DHT22;7442;50.840;3.396;2022-10-15T16:46:49;23.30;57.30
14705;DHT22;7442;50.840;3.396;2022-10-15T16:49:19;23.20;57.40
14705;DHT22;7442;50.840;3.396;2022-10-15T16:51:49;23.20;57.50
14705;DHT22;7442;50.840;3.396;2022-10-15T16:54:20;23.10;57.50
14705;DHT22;7442;50.840;3.396;2022-10-15T16:56:50;23.10;57.50
14705;DHT22;7442;50.840;3.396;2022-10-15T16:59:21;23.10;57.50
14705;DHT22;7442;50.840;3.396;2022-10-15T17:01:51;23.10;57.60
14705;DHT22;7442;50.840;3.396;2022-10-15T17:04:21;23.10;57.60
14705;DHT22;7442;50.840;3.396;2022-10-15T17:06:51;23.10;57.60
14705;DHT22;7442;50.840;3.396;2022-10-15T17:09:21;23.10;57.60
14705;DHT22;7442;50.840;3.396;2022-10-15T17:11:51;23.00;57.70
14705;DHT22;7442;50.840;3.396;2022-10-15T17:14:21;23.00;57.70
14705;DHT22;7442;50.840;3.396;2022-10-15T17:16:52;23.00;57.60
14705;DHT22;7442;50.840;3.396;2022-10-15T17:19:24;23.10;57.60
14705;DHT22;7442;50.840;3.396;2022-10-15T17:21:54;23.00;57.50
14705;DHT22;7442;50.840;3.396;2022-10-15T17:24:24;23.00;57.60
14705;DHT22;7442;50.840;3.396;2022-10-15T17:26:54;23.00;57.60
14705;DHT22;7442;50.840;3.396;2022-10-15T17:29:25;23.00;57.40
14705;DHT22;7442;50.840;3.396;2022-10-15T17:31:56;23.00;57.50
14705;DHT22;7442;50.840;3.396;2022-10-15T17:34:26;23.00;57.50
14705;DHT22;7442;50.840;3.396;2022-10-15T17:36:56;23.00;57.60
14705;DHT22;7442;50.840;3.396;2022-10-15T17:39:26;23.00;57.60
14705;DHT22;7442;50.840;3.396;2022-10-15T17:41:56;23.00;57.70
14705;DHT22;7442;50.840;3.396;2022-10-15T17:44:26;23.00;57.70
14705;DHT22;7442;50.840;3.396;2022-10-15T17:46:56;23.00;57.60